N92TH KLAX-KTVL
Flight info
| Callsign | N92TH |
|---|---|
| Flight time | 0h 54m |
| Altitude | 43000 |
| Route | LADYJ4 CSTRO NURAY SLEAT |
| Aircraft | C750/M-SBDE3FGHRWXY/S |
Departure
| Time | 2026-04-20 04:21 |
|---|---|
| Airport | Los Angeles International Airport (KLAX) |
Arrival
| Time | 2026-04-20 05:16 |
|---|---|
| Airport | Lake Tahoe Airport (KTVL) |
| Time | Latitude | Longitude | Altitude | Speed | Heading |
|---|---|---|---|---|---|
| 2026-04-20 04:07 | 33.93392 | -118.39568 | 89 ft | 0 kts | 225° |
| 2026-04-20 04:11 | 33.93404 | -118.39556 | 91 ft | 2 kts | 210° |
| 2026-04-20 04:11 | 33.93409 | -118.39553 | 89 ft | 0 kts | 185° |
| 2026-04-20 04:14 | 33.93399 | -118.39546 | 91 ft | 3 kts | 131° |
| 2026-04-20 04:14 | 33.93414 | -118.39506 | 90 ft | 7 kts | 57° |
| 2026-04-20 04:14 | 33.93428 | -118.39464 | 90 ft | 0 kts | 77° |
| 2026-04-20 04:15 | 33.93430 | -118.39442 | 92 ft | 9 kts | 88° |
| 2026-04-20 04:15 | 33.93449 | -118.39396 | 90 ft | 9 kts | 12° |
| 2026-04-20 04:15 | 33.93504 | -118.39341 | 89 ft | 11 kts | 73° |
| 2026-04-20 04:16 | 33.93515 | -118.39247 | 89 ft | 14 kts | 83° |
| 2026-04-20 04:16 | 33.93522 | -118.39172 | 93 ft | 13 kts | 83° |
| 2026-04-20 04:16 | 33.93537 | -118.39032 | 92 ft | 12 kts | 83° |
| 2026-04-20 04:16 | 33.93544 | -118.38966 | 90 ft | 12 kts | 83° |
| 2026-04-20 04:17 | 33.93556 | -118.38841 | 89 ft | 11 kts | 84° |
| 2026-04-20 04:17 | 33.93565 | -118.38745 | 93 ft | 14 kts | 83° |
| 2026-04-20 04:17 | 33.93577 | -118.38627 | 90 ft | 14 kts | 83° |
| 2026-04-20 04:17 | 33.93589 | -118.38519 | 90 ft | 12 kts | 83° |
| 2026-04-20 04:18 | 33.93596 | -118.38451 | 92 ft | 12 kts | 83° |
| 2026-04-20 04:18 | 33.93606 | -118.38356 | 90 ft | 11 kts | 83° |
| 2026-04-20 04:18 | 33.93636 | -118.38284 | 91 ft | 5 kts | 23° |
| 2026-04-20 04:18 | 33.93643 | -118.38281 | 91 ft | 0 kts | 14° |
| 2026-04-20 04:20 | 33.93646 | -118.38281 | 95 ft | 3 kts | 10° |
| 2026-04-20 04:20 | 33.93665 | -118.38280 | 93 ft | 2 kts | 358° |
| 2026-04-20 04:21 | 33.93721 | -118.38319 | 96 ft | 15 kts | 293° |
| 2026-04-20 04:21 | 33.93717 | -118.38463 | 92 ft | 35 kts | 263° |
| 2026-04-20 04:21 | 33.93640 | -118.39214 | 110 ft | 133 kts | 262° |
| 2026-04-20 04:21 | 33.93554 | -118.40325 | 779 ft | 141 kts | 264° |
| 2026-04-20 04:22 | 33.93424 | -118.41543 | 1468 ft | 151 kts | 259° |
| 2026-04-20 04:22 | 33.93266 | -118.42821 | 2165 ft | 162 kts | 261° |
| 2026-04-20 04:22 | 33.93113 | -118.44275 | 2644 ft | 187 kts | 262° |
| 2026-04-20 04:22 | 33.92971 | -118.45924 | 3027 ft | 206 kts | 264° |
| 2026-04-20 04:23 | 33.92929 | -118.47771 | 3418 ft | 229 kts | 265° |
| 2026-04-20 04:23 | 33.92845 | -118.49791 | 3994 ft | 254 kts | 264° |
| 2026-04-20 04:23 | 33.92629 | -118.51995 | 4672 ft | 272 kts | 262° |
| 2026-04-20 04:23 | 33.92472 | -118.54262 | 5751 ft | 273 kts | 263° |
| 2026-04-20 04:24 | 33.92309 | -118.56560 | 6707 ft | 278 kts | 262° |
| 2026-04-20 04:24 | 33.92110 | -118.58875 | 7598 ft | 277 kts | 261° |
| 2026-04-20 04:24 | 33.92162 | -118.61252 | 7948 ft | 291 kts | 281° |
| 2026-04-20 04:24 | 33.93146 | -118.63378 | 7973 ft | 296 kts | 309° |
| 2026-04-20 04:25 | 33.94808 | -118.64863 | 8001 ft | 301 kts | 329° |
| 2026-04-20 04:25 | 33.96661 | -118.66033 | 8010 ft | 301 kts | 332° |
| 2026-04-20 04:25 | 33.98514 | -118.67171 | 7999 ft | 296 kts | 334° |
| 2026-04-20 04:25 | 34.00530 | -118.67649 | 7955 ft | 298 kts | 1° |
| 2026-04-20 04:26 | 34.02646 | -118.67522 | 8007 ft | 303 kts | 4° |
| 2026-04-20 04:26 | 34.04727 | -118.67381 | 8164 ft | 296 kts | 4° |
| 2026-04-20 04:26 | 34.06815 | -118.67251 | 9033 ft | 300 kts | 3° |
| 2026-04-20 04:26 | 34.08887 | -118.66940 | 9993 ft | 304 kts | 12° |
| 2026-04-20 04:27 | 34.11016 | -118.66411 | 10461 ft | 324 kts | 12° |
| 2026-04-20 04:27 | 34.13320 | -118.65856 | 10664 ft | 351 kts | 12° |
| 2026-04-20 04:27 | 34.15807 | -118.65282 | 10873 ft | 374 kts | 11° |
| 2026-04-20 04:27 | 34.18370 | -118.64683 | 11657 ft | 376 kts | 11° |
| 2026-04-20 04:28 | 34.20915 | -118.64075 | 12378 ft | 380 kts | 11° |
| 2026-04-20 04:28 | 34.23530 | -118.63484 | 13067 ft | 384 kts | 8° |
| 2026-04-20 04:28 | 34.26213 | -118.63642 | 13673 ft | 388 kts | 349° |
| 2026-04-20 04:28 | 34.28862 | -118.64269 | 14386 ft | 389 kts | 347° |
| 2026-04-20 04:29 | 34.31533 | -118.64892 | 15050 ft | 392 kts | 348° |
| 2026-04-20 04:29 | 34.34232 | -118.65492 | 15721 ft | 395 kts | 348° |
| 2026-04-20 04:29 | 34.36948 | -118.66101 | 16413 ft | 398 kts | 348° |
| 2026-04-20 04:29 | 34.39630 | -118.66720 | 17091 ft | 402 kts | 347° |
| 2026-04-20 04:30 | 34.42390 | -118.67356 | 17761 ft | 406 kts | 348° |
| 2026-04-20 04:30 | 34.45199 | -118.67874 | 18412 ft | 410 kts | 350° |
| 2026-04-20 04:30 | 34.48027 | -118.68435 | 19097 ft | 412 kts | 348° |
| 2026-04-20 04:30 | 34.50856 | -118.69028 | 19794 ft | 414 kts | 348° |
| 2026-04-20 04:31 | 34.53658 | -118.69575 | 20496 ft | 416 kts | 349° |
| 2026-04-20 04:31 | 34.56495 | -118.70107 | 21206 ft | 419 kts | 349° |
| 2026-04-20 04:31 | 34.59387 | -118.70668 | 21913 ft | 422 kts | 348° |
| 2026-04-20 04:31 | 34.62295 | -118.71250 | 22585 ft | 426 kts | 348° |
| 2026-04-20 04:32 | 34.65234 | -118.71830 | 23263 ft | 429 kts | 348° |
| 2026-04-20 04:32 | 34.68194 | -118.72402 | 23901 ft | 432 kts | 348° |
| 2026-04-20 04:32 | 34.71136 | -118.73150 | 24428 ft | 432 kts | 341° |
| 2026-04-20 04:32 | 34.73921 | -118.74508 | 25042 ft | 431 kts | 331° |
| 2026-04-20 04:33 | 34.76541 | -118.76286 | 25612 ft | 432 kts | 328° |
| 2026-04-20 04:33 | 34.79160 | -118.78092 | 26196 ft | 434 kts | 328° |
| 2026-04-20 04:33 | 34.81808 | -118.79894 | 26756 ft | 437 kts | 328° |
| 2026-04-20 04:33 | 34.84466 | -118.81711 | 27340 ft | 439 kts | 328° |
| 2026-04-20 04:34 | 34.87138 | -118.83555 | 27892 ft | 442 kts | 328° |
| 2026-04-20 04:34 | 34.89818 | -118.85405 | 28480 ft | 444 kts | 328° |
| 2026-04-20 04:34 | 34.92516 | -118.87258 | 29027 ft | 447 kts | 328° |
| 2026-04-20 04:34 | 34.95196 | -118.89100 | 29601 ft | 449 kts | 328° |
| 2026-04-20 04:35 | 34.97927 | -118.90985 | 30129 ft | 452 kts | 328° |
| 2026-04-20 04:35 | 35.00672 | -118.92881 | 30568 ft | 455 kts | 328° |
| 2026-04-20 04:35 | 35.03436 | -118.94790 | 31009 ft | 457 kts | 328° |
| 2026-04-20 04:35 | 35.06191 | -118.96690 | 31763 ft | 452 kts | 328° |
| 2026-04-20 04:36 | 35.11622 | -119.00448 | 33223 ft | 444 kts | 327° |
| 2026-04-20 04:36 | 35.14303 | -119.02304 | 33957 ft | 441 kts | 327° |
| 2026-04-20 04:36 | 35.16964 | -119.04149 | 34536 ft | 439 kts | 327° |
| 2026-04-20 04:37 | 35.19589 | -119.05971 | 35068 ft | 439 kts | 327° |
| 2026-04-20 04:37 | 35.22250 | -119.07819 | 35565 ft | 440 kts | 327° |
| 2026-04-20 04:37 | 35.24911 | -119.09666 | 36099 ft | 439 kts | 327° |
| 2026-04-20 04:37 | 35.27570 | -119.11515 | 36668 ft | 439 kts | 327° |
| 2026-04-20 04:38 | 35.30225 | -119.13362 | 37233 ft | 438 kts | 326° |
| 2026-04-20 04:38 | 35.32875 | -119.15208 | 37793 ft | 438 kts | 326° |
| 2026-04-20 04:38 | 35.35526 | -119.17055 | 38367 ft | 438 kts | 326° |
| 2026-04-20 04:38 | 35.38174 | -119.18901 | 38841 ft | 438 kts | 326° |
| 2026-04-20 04:39 | 35.40823 | -119.20751 | 39205 ft | 440 kts | 326° |
| 2026-04-20 04:39 | 35.43494 | -119.22609 | 39558 ft | 442 kts | 326° |
| 2026-04-20 04:39 | 35.46335 | -119.24164 | 39875 ft | 452 kts | 335° |
| 2026-04-20 04:39 | 35.49305 | -119.25334 | 40227 ft | 455 kts | 337° |
| 2026-04-20 04:40 | 35.52322 | -119.26521 | 40565 ft | 457 kts | 336° |
| 2026-04-20 04:40 | 35.55350 | -119.27751 | 40914 ft | 459 kts | 335° |
| 2026-04-20 04:40 | 35.58393 | -119.28987 | 41292 ft | 461 kts | 335° |
| 2026-04-20 04:40 | 35.61449 | -119.30208 | 41638 ft | 463 kts | 335° |
| 2026-04-20 04:41 | 35.64524 | -119.31433 | 41975 ft | 465 kts | 335° |
| 2026-04-20 04:41 | 35.67609 | -119.32677 | 42326 ft | 467 kts | 335° |
| 2026-04-20 04:41 | 35.70706 | -119.33930 | 42660 ft | 469 kts | 335° |
| 2026-04-20 04:41 | 35.73815 | -119.35182 | 42949 ft | 472 kts | 335° |
| 2026-04-20 04:42 | 35.76978 | -119.36458 | 42923 ft | 482 kts | 335° |
| 2026-04-20 04:42 | 35.83421 | -119.39061 | 42928 ft | 499 kts | 335° |
| 2026-04-20 04:43 | 35.90125 | -119.41771 | 42904 ft | 514 kts | 335° |
| 2026-04-20 04:43 | 35.96985 | -119.44549 | 42921 ft | 519 kts | 335° |
| 2026-04-20 04:44 | 36.03866 | -119.47340 | 42902 ft | 520 kts | 335° |
| 2026-04-20 04:44 | 36.10760 | -119.50145 | 42908 ft | 521 kts | 335° |
| 2026-04-20 04:45 | 36.17604 | -119.52932 | 42902 ft | 521 kts | 335° |
| 2026-04-20 04:45 | 36.24485 | -119.55741 | 42893 ft | 520 kts | 335° |
| 2026-04-20 04:46 | 36.31356 | -119.58552 | 42893 ft | 520 kts | 335° |
| 2026-04-20 04:46 | 36.38225 | -119.61365 | 42889 ft | 520 kts | 335° |
| 2026-04-20 04:47 | 36.45105 | -119.64190 | 42894 ft | 520 kts | 335° |
| 2026-04-20 04:47 | 36.51968 | -119.67012 | 42889 ft | 520 kts | 335° |
| 2026-04-20 04:48 | 36.58856 | -119.69646 | 42902 ft | 525 kts | 342° |
| 2026-04-20 04:48 | 36.66218 | -119.70403 | 42913 ft | 536 kts | 354° |
| 2026-04-20 04:49 | 36.73686 | -119.70532 | 42910 ft | 535 kts | 353° |
| 2026-04-20 04:49 | 36.81131 | -119.70831 | 42912 ft | 536 kts | 353° |
| 2026-04-20 04:50 | 36.88584 | -119.71005 | 42910 ft | 535 kts | 353° |
| 2026-04-20 04:50 | 36.96027 | -119.71267 | 42904 ft | 535 kts | 353° |
| 2026-04-20 04:51 | 37.03434 | -119.71468 | 42899 ft | 530 kts | 353° |
| 2026-04-20 04:51 | 37.10819 | -119.71713 | 42905 ft | 531 kts | 353° |
| 2026-04-20 04:52 | 37.18170 | -119.71926 | 42932 ft | 531 kts | 353° |
| 2026-04-20 04:52 | 37.25565 | -119.72159 | 42926 ft | 531 kts | 353° |
| 2026-04-20 04:53 | 37.32974 | -119.72384 | 42934 ft | 531 kts | 353° |
| 2026-04-20 04:53 | 37.40396 | -119.72616 | 42953 ft | 537 kts | 353° |
| 2026-04-20 04:54 | 37.47796 | -119.72840 | 42968 ft | 535 kts | 353° |
| 2026-04-20 04:54 | 37.55231 | -119.73073 | 42965 ft | 535 kts | 353° |
| 2026-04-20 04:55 | 37.62661 | -119.73301 | 42842 ft | 528 kts | 353° |
| 2026-04-20 04:55 | 37.66292 | -119.73405 | 42121 ft | 515 kts | 353° |
| 2026-04-20 04:55 | 37.69830 | -119.73514 | 41436 ft | 503 kts | 353° |
| 2026-04-20 04:55 | 37.73280 | -119.73627 | 40796 ft | 491 kts | 353° |
| 2026-04-20 04:56 | 37.76655 | -119.73733 | 40165 ft | 479 kts | 353° |
| 2026-04-20 04:56 | 37.79956 | -119.73833 | 39538 ft | 468 kts | 353° |
| 2026-04-20 04:56 | 37.83192 | -119.73935 | 38935 ft | 463 kts | 353° |
| 2026-04-20 04:56 | 37.86400 | -119.74039 | 38265 ft | 459 kts | 353° |
| 2026-04-20 04:57 | 37.89589 | -119.74142 | 37680 ft | 461 kts | 353° |
| 2026-04-20 04:57 | 37.92780 | -119.74243 | 37077 ft | 466 kts | 353° |
| 2026-04-20 04:57 | 37.95998 | -119.74340 | 36426 ft | 470 kts | 354° |
| 2026-04-20 04:57 | 37.99274 | -119.74437 | 35855 ft | 472 kts | 353° |
| 2026-04-20 04:58 | 38.02569 | -119.74548 | 35232 ft | 476 kts | 354° |
| 2026-04-20 04:58 | 38.05887 | -119.74657 | 34601 ft | 478 kts | 354° |
| 2026-04-20 04:58 | 38.09221 | -119.74757 | 33967 ft | 480 kts | 354° |
| 2026-04-20 04:58 | 38.12566 | -119.74857 | 33298 ft | 481 kts | 354° |
| 2026-04-20 04:59 | 38.15915 | -119.75110 | 32662 ft | 481 kts | 351° |
| 2026-04-20 04:59 | 38.19262 | -119.75422 | 32024 ft | 484 kts | 352° |
| 2026-04-20 04:59 | 38.22640 | -119.75680 | 31383 ft | 490 kts | 353° |
| 2026-04-20 04:59 | 38.26054 | -119.75965 | 30737 ft | 493 kts | 353° |
| 2026-04-20 05:00 | 38.29483 | -119.76293 | 30083 ft | 491 kts | 352° |
| 2026-04-20 05:00 | 38.32875 | -119.76609 | 29392 ft | 486 kts | 353° |
| 2026-04-20 05:00 | 38.36200 | -119.76891 | 28758 ft | 482 kts | 353° |
| 2026-04-20 05:00 | 38.39534 | -119.77178 | 28121 ft | 478 kts | 353° |
| 2026-04-20 05:01 | 38.42843 | -119.77481 | 27494 ft | 478 kts | 353° |
| 2026-04-20 05:01 | 38.46145 | -119.77784 | 26858 ft | 472 kts | 353° |
| 2026-04-20 05:01 | 38.49416 | -119.78073 | 26237 ft | 469 kts | 353° |
| 2026-04-20 05:01 | 38.52654 | -119.78356 | 25619 ft | 464 kts | 353° |
| 2026-04-20 05:02 | 38.55865 | -119.78646 | 25004 ft | 460 kts | 353° |
| 2026-04-20 05:02 | 38.59045 | -119.78936 | 24399 ft | 455 kts | 353° |
| 2026-04-20 05:02 | 38.62203 | -119.79218 | 23791 ft | 454 kts | 354° |
| 2026-04-20 05:02 | 38.65305 | -119.79494 | 23152 ft | 449 kts | 354° |
| 2026-04-20 05:03 | 38.68408 | -119.79773 | 22585 ft | 446 kts | 354° |
| 2026-04-20 05:03 | 38.71492 | -119.80053 | 21999 ft | 443 kts | 354° |
| 2026-04-20 05:03 | 38.74550 | -119.80328 | 21429 ft | 439 kts | 354° |
| 2026-04-20 05:03 | 38.77585 | -119.80601 | 20855 ft | 436 kts | 354° |
| 2026-04-20 05:04 | 38.80603 | -119.80873 | 20290 ft | 433 kts | 355° |
| 2026-04-20 05:04 | 38.83587 | -119.81144 | 19728 ft | 428 kts | 355° |
| 2026-04-20 05:04 | 38.86553 | -119.81425 | 19112 ft | 426 kts | 354° |
| 2026-04-20 05:04 | 38.89498 | -119.81687 | 18565 ft | 423 kts | 355° |
| 2026-04-20 05:05 | 38.91433 | -119.81844 | 18186 ft | 416 kts | 356° |
| 2026-04-20 05:05 | 38.94237 | -119.82088 | 17625 ft | 393 kts | 355° |
| 2026-04-20 05:05 | 38.96894 | -119.82343 | 17125 ft | 372 kts | 355° |
| 2026-04-20 05:05 | 38.99419 | -119.82580 | 16653 ft | 356 kts | 355° |
| 2026-04-20 05:06 | 39.01847 | -119.82795 | 16192 ft | 342 kts | 354° |
| 2026-04-20 05:06 | 39.04180 | -119.83004 | 15746 ft | 331 kts | 354° |
| 2026-04-20 05:06 | 39.06425 | -119.83208 | 15312 ft | 314 kts | 354° |
| 2026-04-20 05:06 | 39.08556 | -119.83403 | 14979 ft | 301 kts | 354° |
| 2026-04-20 05:07 | 39.10638 | -119.83595 | 14680 ft | 300 kts | 354° |
| 2026-04-20 05:07 | 39.12716 | -119.83784 | 14308 ft | 299 kts | 354° |
| 2026-04-20 05:07 | 39.14789 | -119.83973 | 13921 ft | 298 kts | 354° |
| 2026-04-20 05:07 | 39.16837 | -119.84210 | 13521 ft | 293 kts | 350° |
| 2026-04-20 05:08 | 39.18691 | -119.85206 | 13084 ft | 287 kts | 321° |
| 2026-04-20 05:08 | 39.19994 | -119.87062 | 12735 ft | 273 kts | 296° |
| 2026-04-20 05:08 | 39.20568 | -119.89282 | 12366 ft | 255 kts | 271° |
| 2026-04-20 05:08 | 39.20451 | -119.91499 | 12070 ft | 244 kts | 250° |
| 2026-04-20 05:09 | 39.19760 | -119.93412 | 11737 ft | 233 kts | 231° |
| 2026-04-20 05:09 | 39.18784 | -119.95031 | 11464 ft | 228 kts | 227° |
| 2026-04-20 05:09 | 39.17728 | -119.96534 | 11128 ft | 225 kts | 215° |
| 2026-04-20 05:09 | 39.16352 | -119.97410 | 10840 ft | 218 kts | 195° |
| 2026-04-20 05:10 | 39.14862 | -119.97587 | 10645 ft | 215 kts | 178° |
| 2026-04-20 05:10 | 39.13365 | -119.97437 | 10467 ft | 216 kts | 176° |
| 2026-04-20 05:10 | 39.11867 | -119.97305 | 10261 ft | 214 kts | 177° |
| 2026-04-20 05:10 | 39.10378 | -119.97175 | 10049 ft | 214 kts | 177° |
| 2026-04-20 05:11 | 39.08898 | -119.97041 | 9833 ft | 212 kts | 177° |
| 2026-04-20 05:11 | 39.07415 | -119.96906 | 9654 ft | 213 kts | 177° |
| 2026-04-20 05:11 | 39.05929 | -119.96771 | 9449 ft | 215 kts | 176° |
| 2026-04-20 05:11 | 39.04447 | -119.96720 | 9196 ft | 217 kts | 185° |
| 2026-04-20 05:12 | 39.02982 | -119.96994 | 8923 ft | 204 kts | 188° |
| 2026-04-20 05:12 | 39.01642 | -119.97247 | 8653 ft | 187 kts | 187° |
| 2026-04-20 05:12 | 39.00380 | -119.97466 | 8391 ft | 181 kts | 187° |
| 2026-04-20 05:12 | 38.99191 | -119.97681 | 8146 ft | 156 kts | 187° |
| 2026-04-20 05:13 | 38.98222 | -119.97837 | 7951 ft | 127 kts | 185° |
| 2026-04-20 05:13 | 38.97351 | -119.97899 | 7693 ft | 127 kts | 184° |
| 2026-04-20 05:13 | 38.96479 | -119.97958 | 7572 ft | 129 kts | 182° |
| 2026-04-20 05:13 | 38.95599 | -119.97989 | 7459 ft | 127 kts | 185° |
| 2026-04-20 05:14 | 38.94685 | -119.98092 | 7324 ft | 130 kts | 186° |
| 2026-04-20 05:14 | 38.93792 | -119.98232 | 7138 ft | 129 kts | 187° |
| 2026-04-20 05:14 | 38.92952 | -119.98476 | 7054 ft | 121 kts | 193° |
| 2026-04-20 05:14 | 38.92076 | -119.98737 | 6951 ft | 130 kts | 192° |
| 2026-04-20 05:15 | 38.91219 | -119.98996 | 6703 ft | 127 kts | 193° |
| 2026-04-20 05:15 | 38.90350 | -119.99256 | 6322 ft | 122 kts | 192° |
| 2026-04-20 05:15 | 38.89626 | -119.99491 | 6276 ft | 90 kts | 194° |
| 2026-04-20 05:15 | 38.88981 | -119.99647 | 6265 ft | 98 kts | 194° |
| 2026-04-20 05:16 | 38.88557 | -119.99780 | 6264 ft | 45 kts | 194° |
| 2026-04-20 05:16 | 38.88279 | -119.99862 | 6263 ft | 31 kts | 209° |
| 2026-04-20 05:16 | 38.88280 | -119.99949 | 6262 ft | 7 kts | 317° |